| time (UTC) | temp F | wind direction | speed MPH | gust MPH | rain 1hr in | rain 24hr in | rain mn in | humidity % | barometer mb |
| 20260905204524 | 82 | 231 | 3.0 | 6.0 | 0.00 | 0.00 | 0.00 | 69 | 1014.9 |
| 20260905203523 | 83 | 268 | 3.0 | 5.0 | 0.00 | 0.00 | 0.00 | 70 | 1015.0 |
| 20260905202515 | 82 | 8 | 2.0 | 4.0 | 0.00 | 0.00 | 0.00 | 72 | 1014.9 |
| 20260905201521 | 80 | 141 | 2.0 | 5.0 | 0.00 | 0.00 | 0.00 | 75 | 1015.0 |
| 20260905200539 | 82 | 13 | 3.0 | 4.0 | 0.00 | 0.00 | 0.00 | 73 | 1015.0 |
| 20260905195538 | 79 | 191 | 1.0 | 3.0 | 0.00 | 0.00 | 0.00 | 78 | 1015.1 |
| 20260905194557 | 81 | 23 | 1.0 | 2.0 | 0.00 | 0.00 | 0.00 | 78 | 1015.2 |
| 20260905193516 | 79 | 338 | 1.0 | 4.0 | 0.00 | 0.00 | 0.00 | 77 | 1015.3 |
| 20260905192515 | 80 | 196 | 2.0 | 3.0 | 0.00 | 0.00 | 0.00 | 74 | 1015.5 |
| 20260905191633 | 79 | 290 | 2.0 | 5.0 | 0.00 | 0.00 | 0.00 | 76 | 1015.6 |
| 20260905190519 | 80 | 300 | 3.0 | 5.0 | 0.00 | 0.00 | 0.00 | 74 | 1015.6 |
| 20260905185524 | 81 | 316 | 3.0 | 5.0 | 0.00 | 0.00 | 0.00 | 75 | 1015.6 |
| 20260905184529 | 83 | 311 | 4.0 | 5.0 | 0.00 | 0.00 | 0.00 | 74 | 1015.8 |
| 20260905183516 | 82 | 345 | 3.0 | 5.0 | 0.00 | 0.00 | 0.00 | 73 | 1015.7 |
| 20260905182521 | 81 | 284 | 4.0 | 5.0 | 0.00 | 0.00 | 0.00 | 73 | 1015.9 |
| 20260905181546 | 81 | 317 | 4.0 | 8.0 | 0.00 | 0.00 | 0.00 | 75 | 1015.9 |
| 20260905180530 | 79 | 2 | 3.0 | 5.0 | 0.00 | 0.00 | 0.00 | 79 | 1015.9 |
| 20260905175517 | 78 | 321 | 3.0 | 4.0 | 0.00 | 0.00 | 0.00 | 80 | 1016.0 |
| 20260905174522 | 78 | 188 | 2.0 | 3.0 | 0.00 | 0.00 | 0.00 | 81 | 1016.0 |
| 20260905173527 | 79 | 178 | 2.0 | 4.0 | 0.00 | 0.00 | 0.00 | 78 | 1016.2 |
| 20260905172553 | 79 | 232 | 3.0 | 4.0 | 0.00 | 0.00 | 0.00 | 79 | 1016.4 |
| 20260905171540 | 77 | 51 | 1.0 | 4.0 | 0.00 | 0.00 | 0.00 | 83 | 1016.5 |
| 20260905170524 | 76 | 347 | 1.0 | 2.0 | 0.00 | 0.00 | 0.00 | 81 | 1016.6 |
| 20260905165549 | 76 | 105 | 2.0 | 3.0 | 0.00 | 0.00 | 0.00 | 82 | 1016.7 |
| 20260905164516 | 78 | 266 | 2.0 | 3.0 | 0.00 | 0.00 | 0.00 | 78 | 1016.7 |
| 20260905163521 | 78 | 277 | 2.0 | 4.0 | 0.00 | 0.00 | 0.00 | 80 | 1016.9 |
| 20260905162526 | 78 | 307 | 2.0 | 4.0 | 0.00 | 0.00 | 0.00 | 77 | 1016.9 |
| 20260905161530 | 79 | 314 | 4.0 | 5.0 | 0.00 | 0.00 | 0.00 | 77 | 1017.0 |
| 20260905160517 | 79 | 312 | 3.0 | 5.0 | 0.00 | 0.00 | 0.00 | 77 | 1017.1 |
| 20260905155522 | 76 | 280 | 1.0 | 3.0 | 0.00 | 0.00 | 0.00 | 79 | 1017.3 |
| 20260905154528 | 77 | 240 | 3.0 | 4.0 | 0.00 | 0.00 | 0.00 | 81 | 1017.3 |
| 20260905153532 | 77 | 170 | 3.0 | 3.0 | 0.00 | 0.00 | 0.00 | 80 | 1017.3 |
| 20260905152520 | 75 | 199 | 1.0 | 2.0 | 0.00 | 0.00 | 0.00 | 82 | 1017.4 |
| 20260905151544 | 75 | 178 | 1.0 | 2.0 | 0.00 | 0.00 | 0.00 | 85 | 1017.4 |
| 20260905150529 | 74 | 162 | 2.0 | 3.0 | 0.00 | 0.00 | 0.00 | 86 | 1017.4 |
| 20260905145516 | 74 | 304 | 1.0 | 2.0 | 0.00 | 0.00 | 0.00 | 86 | 1017.4 |
| 20260905144541 | 75 | 180 | 1.0 | 2.0 | 0.00 | 0.00 | 0.00 | 85 | 1017.2 |
| 20260905143526 | 75 | 68 | 0.0 | 1.0 | 0.00 | 0.00 | 0.00 | 86 | 1017.1 |
| 20260905142530 | 76 | 0.0 | 0.0 | 0.00 | 0.00 | 0.00 | 85 | 1017.1 | |
| 20260905141518 | 75 | 212 | 1.0 | 2.0 | 0.00 | 0.00 | 0.00 | 86 | 1016.9 |
| 20260905140523 | 76 | 97 | 1.0 | 2.0 | 0.00 | 0.00 | 0.00 | 85 | 1016.8 |
| 20260905135527 | 75 | 184 | 2.0 | 2.0 | 0.00 | 0.00 | 0.00 | 86 | 1016.9 |
| 20260905134532 | 75 | 264 | 1.0 | 3.0 | 0.00 | 0.00 | 0.00 | 85 | 1016.6 |
| 20260905133519 | 74 | 230 | 1.0 | 4.0 | 0.00 | 0.00 | 0.00 | 89 | 1016.6 |
| 20260905132524 | 73 | 280 | 1.0 | 3.0 | 0.00 | 0.00 | 0.00 | 91 | 1016.8 |
| 20260905131529 | 73 | 0.0 | 1.0 | 0.00 | 0.00 | 0.00 | 91 | 1016.8 | |
| 20260905130516 | 73 | 0.0 | 0.0 | 0.00 | 0.00 | 0.00 | 91 | 1016.8 | |
| 20260905125520 | 72 | 187 | 1.0 | 2.0 | 0.00 | 0.00 | 0.00 | 91 | 1016.6 |
| 20260905124526 | 72 | 165 | 0.0 | 2.0 | 0.00 | 0.00 | 0.00 | 93 | 1016.3 |
| 20260905123530 | 71 | 184 | 1.0 | 3.0 | 0.00 | 0.00 | 0.00 | 94 | 1016.2 |
| 20260905122518 | 71 | 192 | 2.0 | 4.0 | 0.00 | 0.00 | 0.00 | 95 | 1016.3 |
| 20260905121522 | 70 | 186 | 2.0 | 3.0 | 0.00 | 0.00 | 0.00 | 97 | 1016.3 |
| 20260905120527 | 69 | 178 | 1.0 | 2.0 | 0.00 | 0.00 | 0.00 | 99 | 1016.3 |
| 20260905115526 | 69 | 152 | 1.0 | 2.0 | 0.00 | 0.00 | 0.00 | 99 | 1016.4 |
| 20260905114519 | 69 | 180 | 0.0 | 2.0 | 0.00 | 0.00 | 0.00 | 99 | 1016.4 |
| 20260905113523 | 68 | 0.0 | 0.0 | 0.00 | 0.00 | 0.00 | 99 | 1016.2 | |
| 20260905112542 | 68 | 0.0 | 0.0 | 0.00 | 0.00 | 0.00 | 99 | 1016.1 | |
| 20260905111537 | 67 | 174 | 0.0 | 2.0 | 0.00 | 0.00 | 0.00 | 99 | 1016.1 |
| 20260905110521 | 68 | 151 | 0.0 | 2.0 | 0.00 | 0.00 | 0.00 | 99 | 1016.1 |
| 20260905105519 | 67 | 262 | 1.0 | 3.0 | 0.00 | 0.00 | 0.00 | 99 | 1015.9 |
| 20260905104519 | 67 | 0.0 | 0.0 | 0.00 | 0.00 | 0.00 | 99 | 1015.8 | |
| 20260905103517 | 67 | 0.0 | 0.0 | 0.00 | 0.00 | 0.00 | 99 | 1015.3 | |
| 20260905102517 | 67 | 0.0 | 0.0 | 0.00 | 0.00 | 0.00 | 99 | 1015.3 | |
| 20260905101536 | 67 | 0.0 | 0.0 | 0.00 | 0.00 | 0.00 | 99 | 1015.3 | |
| 20260905100532 | 67 | 0.0 | 0.0 | 0.00 | 0.00 | 0.00 | 99 | 1015.2 | |
| 20260905095520 | 67 | 0.0 | 1.0 | 0.00 | 0.00 | 0.00 | 99 | 1015.0 | |
| 20260905094524 | 67 | 158 | 0.0 | 2.0 | 0.00 | 0.00 | 0.00 | 99 | 1015.2 |
| 20260905093529 | 67 | 161 | 1.0 | 2.0 | 0.00 | 0.00 | 0.00 | 99 | 1015.1 |
| 20260905092536 | 67 | 0.0 | 0.0 | 0.00 | 0.00 | 0.00 | 99 | 1015.2 | |
| 20260905091521 | 67 | 180 | 1.0 | 2.0 | 0.00 | 0.00 | 0.00 | 99 | 1015.2 |
| 20260905090526 | 67 | 113 | 0.0 | 1.0 | 0.00 | 0.00 | 0.00 | 99 | 1015.2 |
| 20260905085531 | 67 | 160 | 1.0 | 2.0 | 0.00 | 0.00 | 0.00 | 99 | 1015.1 |
| 20260905084518 | 67 | 186 | 1.0 | 2.0 | 0.00 | 0.00 | 0.00 | 99 | 1014.9 |
| 20260905083522 | 68 | 166 | 1.0 | 2.0 | 0.00 | 0.00 | 0.00 | 99 | 1014.9 |
| 20260905082527 | 68 | 169 | 1.0 | 2.0 | 0.00 | 0.00 | 0.00 | 99 | 1015.0 |
| 20260905081532 | 68 | 158 | 1.0 | 3.0 | 0.00 | 0.00 | 0.00 | 99 | 1015.0 |
| 20260905080519 | 68 | 163 | 1.0 | 2.0 | 0.00 | 0.00 | 0.00 | 99 | 1015.0 |
| 20260905075525 | 68 | 158 | 0.0 | 2.0 | 0.00 | 0.00 | 0.00 | 99 | 1015.2 |
| 20260905074529 | 69 | 161 | 1.0 | 2.0 | 0.00 | 0.00 | 0.00 | 99 | 1015.2 |
| 20260905073516 | 69 | 180 | 0.0 | 1.0 | 0.00 | 0.00 | 0.00 | 99 | 1015.4 |
| 20260905072521 | 69 | 0.0 | 0.0 | 0.00 | 0.00 | 0.00 | 99 | 1015.4 | |
| 20260905071606 | 70 | 0.0 | 0.0 | 0.00 | 0.00 | 0.00 | 99 | 1015.5 | |
| 20260905070531 | 70 | 161 | 2.0 | 3.0 | 0.00 | 0.00 | 0.00 | 99 | 1015.6 |
| 20260905065518 | 70 | 158 | 0.0 | 3.0 | 0.00 | 0.00 | 0.00 | 99 | 1015.6 |
| 20260905064523 | 70 | 0.0 | 0.0 | 0.00 | 0.00 | 0.00 | 99 | 1015.8 | |
| 20260905063527 | 70 | 157 | 2.0 | 3.0 | 0.00 | 0.00 | 0.00 | 99 | 1016.0 |
| 20260905062532 | 69 | 158 | 1.0 | 2.0 | 0.00 | 0.00 | 0.00 | 99 | 1015.9 |
| 20260905061520 | 69 | 0.0 | 0.0 | 0.00 | 0.00 | 0.00 | 99 | 1016.0 | |
| 20260905060524 | 69 | 0.0 | 0.0 | 0.00 | 0.00 | 0.00 | 99 | 1016.1 | |
| 20260905055529 | 69 | 0.0 | 0.0 | 0.00 | 0.00 | 0.00 | 99 | 1016.2 | |
| 20260905054516 | 70 | 0.0 | 0.0 | 0.00 | 0.00 | 0.00 | 99 | 1016.2 | |
| 20260905053521 | 70 | 141 | 1.0 | 3.0 | 0.00 | 0.00 | 0.00 | 99 | 1016.3 |
| 20260905052546 | 70 | 165 | 2.0 | 3.0 | 0.00 | 0.00 | 0.00 | 99 | 1016.5 |
| 20260905051530 | 70 | 143 | 1.0 | 3.0 | 0.00 | 0.00 | 0.00 | 99 | 1016.5 |
| 20260905050518 | 70 | 0.0 | 0.0 | 0.00 | 0.00 | 0.00 | 99 | 1016.5 | |
| 20260905045522 | 70 | 163 | 1.0 | 2.0 | 0.00 | 0.00 | 0.00 | 99 | 1016.6 |
| 20260905044528 | 70 | 181 | 1.0 | 2.0 | 0.00 | 0.00 | 0.00 | 99 | 1016.5 |
| 20260905043553 | 71 | 180 | 0.0 | 2.0 | 0.00 | 0.00 | 0.00 | 99 | 1016.5 |
| 20260905042520 | 71 | 113 | 0.0 | 2.0 | 0.00 | 0.00 | 0.00 | 99 | 1016.6 |
| 20260905041545 | 71 | 0.0 | 0.0 | 0.00 | 0.00 | 0.00 | 99 | 1016.6 | |
| 20260905040529 | 71 | 0.0 | 0.0 | 0.00 | 0.00 | 0.00 | 99 | 1016.6 | |
| 20260905035516 | 71 | 124 | 1.0 | 2.0 | 0.00 | 0.00 | 0.00 | 99 | 1016.6 |
| 20260905034541 | 72 | 104 | 2.0 | 3.0 | 0.00 | 0.00 | 0.00 | 99 | 1016.7 |
| 20260905033526 | 71 | 158 | 1.0 | 3.0 | 0.00 | 0.01 | 0.00 | 99 | 1016.5 |
| 20260905032531 | 71 | 134 | 2.0 | 3.0 | 0.00 | 0.02 | 0.00 | 99 | 1016.4 |
| 20260905031538 | 71 | 127 | 1.0 | 2.0 | 0.00 | 0.02 | 0.00 | 99 | 1016.4 |
| 20260905030523 | 71 | 164 | 1.0 | 3.0 | 0.00 | 0.02 | 0.00 | 99 | 1016.3 |
| 20260905025548 | 71 | 0.0 | 0.0 | 0.00 | 0.02 | 0.00 | 99 | 1016.2 | |
| 20260905024526 | 71 | 0.0 | 0.0 | 0.00 | 0.03 | 0.00 | 99 | 1016.2 | |
| 20260905023519 | 71 | 0.0 | 3.0 | 0.00 | 0.03 | 0.00 | 99 | 1016.2 | |
| 20260905022524 | 71 | 162 | 1.0 | 2.0 | 0.00 | 0.04 | 0.00 | 99 | 1016.1 |
| 20260905021524 | 71 | 172 | 1.0 | 3.0 | 0.00 | 0.04 | 0.00 | 99 | 1016.1 |
| 20260905020517 | 71 | 0.0 | 0.0 | 0.00 | 0.04 | 0.00 | 99 | 1016.0 | |
| 20260905015541 | 71 | 158 | 2.0 | 3.0 | 0.00 | 0.04 | 0.00 | 99 | 1016.0 |
| 20260905014540 | 72 | 180 | 1.0 | 2.0 | 0.00 | 0.04 | 0.00 | 99 | 1016.1 |
| 20260905013519 | 72 | 157 | 1.0 | 2.0 | 0.00 | 0.04 | 0.00 | 99 | 1016.1 |
| 20260905012518 | 73 | 0.0 | 0.0 | 0.00 | 0.04 | 0.00 | 99 | 1016.1 | |
| 20260905011517 | 73 | 0.0 | 0.0 | 0.00 | 0.04 | 0.00 | 99 | 1016.2 | |
| 20260905010515 | 73 | 0.0 | 0.0 | 0.00 | 0.04 | 0.00 | 99 | 1016.2 | |
| 20260905005533 | 74 | 162 | 0.0 | 2.0 | 0.00 | 0.04 | 0.00 | 98 | 1016.2 |
| 20260905004520 | 74 | 0.0 | 0.0 | 0.00 | 0.04 | 0.00 | 98 | 1016.1 | |
| 20260905003525 | 74 | 0.0 | 0.0 | 0.00 | 0.04 | 0.00 | 97 | 1016.2 | |
| 20260905002529 | 75 | 0.0 | 0.0 | 0.00 | 0.04 | 0.00 | 96 | 1015.7 | |
| 20260905001536 | 76 | 0.0 | 0.0 | 0.00 | 0.04 | 0.00 | 94 | 1015.7 | |
| 20260905000521 | 76 | 0.0 | 0.0 | 0.00 | 0.04 | 0.00 | 94 | 1015.7 | |
| 20260904235546 | 78 | 174 | 1.0 | 2.0 | 0.00 | 0.04 | 0.00 | 91 | 1015.9 |
| 20260904234531 | 79 | 0.0 | 0.0 | 0.00 | 0.04 | 0.00 | 87 | 1015.8 | |
| 20260904233538 | 80 | 0.0 | 0.0 | 0.00 | 0.04 | 0.00 | 84 | 1015.7 | |
| 20260904232523 | 80 | 130 | 0.0 | 1.0 | 0.00 | 0.04 | 0.00 | 83 | 1015.8 |
| 20260904231528 | 81 | 249 | 3.0 | 4.0 | 0.00 | 0.04 | 0.00 | 82 | 1015.9 |
| 20260904230535 | 81 | 257 | 3.0 | 5.0 | 0.00 | 0.04 | 0.00 | 82 | 1016.0 |
| 20260904225520 | 81 | 242 | 4.0 | 6.0 | 0.00 | 0.04 | 0.00 | 81 | 1015.8 |
| 20260904224525 | 82 | 250 | 4.0 | 5.0 | 0.00 | 0.04 | 0.00 | 80 | 1015.8 |
| 20260904223530 | 83 | 292 | 4.0 | 6.0 | 0.00 | 0.04 | 0.00 | 79 | 1015.9 |
| 20260904222516 | 84 | 276 | 3.0 | 6.0 | 0.00 | 0.04 | 0.00 | 77 | 1015.8 |
| 20260904221521 | 85 | 257 | 3.0 | 6.0 | 0.00 | 0.04 | 0.00 | 75 | 1015.7 |
| 20260904220526 | 85 | 259 | 3.0 | 5.0 | 0.00 | 0.04 | 0.00 | 75 | 1015.7 |
| 20260904215532 | 86 | 282 | 4.0 | 6.0 | 0.00 | 0.04 | 0.00 | 75 | 1016.0 |
| 20260904214518 | 85 | 300 | 4.0 | 6.0 | 0.00 | 0.04 | 0.00 | 75 | 1016.0 |
| 20260904213523 | 85 | 279 | 3.0 | 5.0 | 0.00 | 0.04 | 0.00 | 75 | 1016.1 |
| 20260904212549 | 85 | 292 | 5.0 | 7.0 | 0.00 | 0.04 | 0.00 | 75 | 1016.3 |
| 20260904211533 | 86 | 300 | 5.0 | 9.0 | 0.00 | 0.04 | 0.00 | 73 | 1016.4 |
| 20260904210519 | 88 | 5.0 | 5.0 | 0.00 | 0.04 | 0.00 | 71 | 1016.3 | |
| 20260904210022 | 88 | 299 | 4.0 | 7.0 | 0.00 | 0.04 | 0.00 | 74 | 1016.2 |
| 20260904205028 | 88 | 288 | 4.0 | 6.0 | 0.00 | 0.04 | 0.00 | 74 | 1016.3 |